UUDD/DME METAR and TAF weather

Enter ICAO airport designator
Station Type Date Time Source
UUDD METAR 2019/04/18 22:00 UTC NOAA

UUDD 182200Z 02003MPS CAVOK 03/M05 Q1029 R32L/CLRD95 NOSIG


Station Type Date Time Source
UUDD Decoded METAR 2019/04/18 22:00 UTC NOAA

Moscow / Domodedovo, Russia (UUDD) 55-24N 037-54E
Apr 18, 2019 - 06:00 PM EDT / 2019.04.18 2200 UTC
Wind: from the NNE (020 degrees) at 7 MPH (6 KT):0
Visibility: greater than 7 mile(s):0
Temperature: 37 F (3 C)
Dew Point: 23 F (-5 C)
Relative Humidity: 55%
Pressure (altimeter): 30.39 in. Hg (1029 hPa)
ob: UUDD 182200Z 02003MPS CAVOK 03/M05 Q1029 R32L/CLRD95 NOSIG
cycle: 22

Station Type Date Time Source
UUDD TAF 2019/04/18 21:21 UTC NOAA

TAF UUDD 181957Z 1821/2003 03003MPS CAVOK TX12/1912Z TNM00/1903Z

Example: see airport list